createdAt,value
2023-07-03T00:00:16.072Z,22.06
2023-07-03T00:03:03.563Z,21.96
2023-07-03T00:05:50.497Z,22.20
2023-07-03T00:08:37.027Z,22.11
2023-07-03T00:11:23.415Z,22.03
2023-07-03T00:14:09.403Z,22.20
2023-07-03T00:16:57.417Z,22.13
2023-07-03T00:19:43.731Z,22.15
2023-07-03T00:22:30.235Z,22.07
2023-07-03T00:25:16.605Z,22.03
2023-07-03T00:28:02.798Z,22.10
2023-07-03T00:30:49.727Z,21.96
2023-07-03T00:33:36.993Z,22.11
2023-07-03T00:36:23.357Z,22.03
2023-07-03T00:39:09.576Z,21.95
2023-07-03T00:41:55.842Z,21.94
2023-07-03T00:44:42.041Z,22.00
2023-07-03T00:47:28.603Z,21.98
2023-07-03T00:50:16.886Z,22.01
2023-07-03T00:53:06.275Z,21.94
2023-07-03T00:55:52.636Z,21.66
2023-07-03T00:58:38.827Z,21.81
2023-07-03T01:01:28.225Z,21.82
2023-07-03T01:04:16.740Z,21.64
2023-07-03T01:07:08.261Z,21.67
2023-07-03T01:09:57.158Z,21.80
2023-07-03T01:12:45.762Z,21.74
2023-07-03T01:15:35.329Z,21.73
2023-07-03T01:18:22.006Z,21.76
2023-07-03T01:21:11.608Z,21.90
2023-07-03T01:24:01.190Z,21.76
2023-07-03T01:26:48.650Z,21.64
2023-07-03T01:29:41.072Z,21.92
2023-07-03T01:32:30.389Z,21.70
2023-07-03T01:35:17.583Z,21.55
2023-07-03T01:38:04.088Z,21.62
2023-07-03T01:40:50.397Z,21.75
2023-07-03T01:43:38.366Z,21.70
2023-07-03T01:46:24.319Z,21.75
2023-07-03T01:49:13.523Z,21.53
2023-07-03T01:52:06.247Z,21.60
2023-07-03T01:54:57.437Z,21.69
2023-07-03T01:57:54.376Z,21.74
2023-07-03T02:00:47.827Z,21.60
2023-07-03T02:03:38.371Z,21.58
2023-07-03T02:06:27.377Z,21.69
2023-07-03T02:09:13.973Z,21.71
2023-07-03T02:12:07.006Z,21.73
2023-07-03T02:14:54.342Z,21.74
2023-07-03T02:17:41.703Z,21.69
2023-07-03T02:20:27.856Z,21.70
2023-07-03T02:23:16.804Z,21.80
2023-07-03T02:26:03.116Z,21.67
2023-07-03T02:28:49.279Z,21.65
2023-07-03T02:31:35.562Z,21.67
2023-07-03T02:34:23.112Z,21.39
2023-07-03T02:37:10.741Z,21.51
2023-07-03T02:39:58.663Z,21.63
2023-07-03T02:42:46.549Z,21.59
2023-07-03T02:45:35.615Z,21.64
2023-07-03T02:48:21.636Z,21.64
2023-07-03T02:51:09.926Z,21.40
2023-07-03T02:53:57.017Z,21.45
2023-07-03T02:56:43.052Z,21.36
2023-07-03T02:59:30.617Z,21.57
2023-07-03T03:02:17.469Z,21.30
2023-07-03T03:05:03.866Z,21.71
2023-07-03T03:07:51.378Z,21.53
2023-07-03T03:10:37.316Z,21.63
2023-07-03T03:13:23.788Z,21.68
2023-07-03T03:16:12.546Z,21.44
2023-07-03T03:18:59.095Z,21.55
2023-07-03T03:21:45.578Z,21.59
2023-07-03T03:24:32.901Z,21.63
2023-07-03T03:27:19.120Z,21.55
2023-07-03T03:30:05.510Z,21.62
2023-07-03T03:32:55.639Z,21.36
2023-07-03T03:35:42.145Z,21.32
2023-07-03T03:38:28.584Z,21.44
2023-07-03T03:41:16.293Z,21.46
2023-07-03T03:44:04.689Z,21.57
2023-07-03T03:46:53.783Z,21.34
2023-07-03T03:49:40.556Z,21.61
2023-07-03T03:52:27.108Z,21.63
2023-07-03T03:55:13.701Z,21.75
2023-07-03T03:58:01.007Z,21.53
2023-07-03T04:00:47.697Z,21.83
2023-07-03T04:03:33.888Z,21.76
2023-07-03T04:06:20.572Z,21.70
2023-07-03T04:09:06.751Z,21.84
2023-07-03T04:11:53.012Z,21.90
2023-07-03T04:14:43.955Z,21.97
2023-07-03T04:17:29.842Z,21.99
2023-07-03T04:20:18.804Z,21.81
2023-07-03T04:23:04.754Z,21.79
2023-07-03T04:25:52.724Z,21.81
2023-07-03T04:28:39.085Z,21.48
2023-07-03T04:31:26.606Z,21.78
2023-07-03T04:34:12.863Z,21.95
2023-07-03T04:36:59.117Z,21.77
2023-07-03T04:39:48.037Z,21.83
2023-07-03T04:42:34.112Z,22.02
2023-07-03T04:45:22.485Z,22.02
2023-07-03T04:48:10.216Z,21.99
2023-07-03T04:50:56.779Z,21.88
2023-07-03T04:53:43.221Z,22.13
2023-07-03T04:56:30.174Z,21.94
2023-07-03T04:59:16.586Z,21.67
2023-07-03T05:02:03.000Z,21.82
2023-07-03T05:04:50.451Z,21.82
2023-07-03T05:07:36.762Z,21.92
2023-07-03T05:10:23.993Z,21.78
2023-07-03T05:13:10.053Z,21.83
2023-07-03T05:15:56.896Z,22.09
2023-07-03T05:18:43.197Z,22.08
2023-07-03T05:21:30.612Z,22.18
2023-07-03T05:24:16.709Z,22.10
2023-07-03T05:27:02.799Z,22.29
2023-07-03T05:29:48.921Z,22.21
2023-07-03T05:32:35.681Z,22.06
2023-07-03T05:35:21.846Z,22.06
2023-07-03T05:38:09.057Z,21.94
2023-07-03T05:40:55.804Z,22.10
2023-07-03T05:43:41.958Z,22.17
2023-07-03T05:46:27.868Z,22.22
2023-07-03T05:49:13.710Z,22.24
2023-07-03T05:51:59.758Z,22.05
2023-07-03T05:54:47.486Z,22.23
2023-07-03T05:57:33.626Z,22.26
2023-07-03T06:00:20.032Z,22.26
2023-07-03T06:03:06.410Z,22.12
2023-07-03T06:05:53.075Z,22.28
2023-07-03T06:08:39.412Z,22.37
2023-07-03T06:11:26.573Z,22.27
2023-07-03T06:14:16.547Z,22.05
2023-07-03T06:17:03.062Z,22.44
2023-07-03T06:19:48.965Z,22.30
2023-07-03T06:22:35.062Z,22.01
2023-07-03T06:25:20.866Z,22.20
2023-07-03T06:28:08.745Z,22.48
2023-07-03T06:30:55.323Z,22.44
2023-07-03T06:33:41.449Z,22.37
2023-07-03T06:36:27.516Z,22.47
2023-07-03T06:39:13.804Z,22.67
2023-07-03T06:41:59.725Z,22.47
2023-07-03T06:44:47.626Z,22.63
2023-07-03T06:47:33.754Z,22.73
2023-07-03T06:50:19.954Z,22.43
2023-07-03T06:53:06.205Z,22.75
2023-07-03T06:55:59.133Z,22.73
2023-07-03T06:58:45.721Z,22.97
2023-07-03T07:01:33.424Z,23.10
2023-07-03T07:04:20.004Z,23.10
2023-07-03T07:07:06.435Z,22.96
2023-07-03T07:09:52.331Z,23.18
2023-07-03T07:12:38.415Z,23.03
2023-07-03T07:15:24.604Z,23.49
2023-07-03T07:18:12.261Z,23.34
2023-07-03T07:20:58.333Z,23.18
2023-07-03T07:23:44.483Z,23.38
2023-07-03T07:26:34.521Z,23.24
2023-07-03T07:29:20.137Z,23.47
2023-07-03T07:32:06.935Z,23.37
2023-07-03T07:34:54.604Z,23.47
2023-07-03T07:37:41.006Z,23.58
2023-07-03T07:40:26.993Z,23.61
2023-07-03T07:43:14.225Z,23.60
2023-07-03T07:46:00.277Z,23.08
2023-07-03T07:48:48.893Z,23.32
2023-07-03T07:51:36.465Z,22.90
2023-07-03T07:54:22.382Z,23.39
2023-07-03T07:57:08.638Z,23.43
2023-07-03T07:59:54.573Z,23.57
2023-07-03T08:02:40.588Z,23.32
2023-07-03T08:05:27.030Z,23.65
2023-07-03T08:08:14.503Z,23.63
2023-07-03T08:11:01.860Z,23.84
2023-07-03T08:13:48.065Z,23.95
2023-07-03T08:16:34.383Z,23.93
2023-07-03T08:19:20.409Z,23.98
2023-07-03T08:22:06.989Z,24.52
2023-07-03T08:24:54.414Z,24.06
2023-07-03T08:27:40.366Z,24.43
2023-07-03T08:30:26.706Z,24.66
2023-07-03T08:33:13.888Z,24.79
2023-07-03T08:38:50.079Z,24.43
2023-07-03T08:41:42.237Z,24.68
2023-07-03T08:44:28.219Z,24.48
2023-07-03T08:47:17.648Z,24.44
2023-07-03T08:50:07.234Z,24.30
2023-07-03T08:52:58.305Z,24.49
2023-07-03T08:55:47.826Z,24.65
2023-07-03T08:58:35.379Z,24.68
2023-07-03T09:01:26.455Z,24.65
2023-07-03T09:04:15.776Z,24.60
2023-07-03T09:07:03.572Z,24.91
2023-07-03T09:09:52.619Z,24.45
2023-07-03T09:12:41.353Z,25.09
2023-07-03T09:15:31.560Z,25.47
2023-07-03T09:18:19.773Z,25.38
2023-07-03T09:21:05.850Z,25.51
2023-07-03T09:23:54.898Z,25.96
2023-07-03T09:26:45.530Z,26.47
2023-07-03T09:29:34.009Z,26.45
2023-07-03T09:32:27.605Z,26.58
2023-07-03T09:35:16.853Z,26.84
2023-07-03T09:38:06.103Z,26.92
2023-07-03T09:40:56.969Z,26.96
2023-07-03T09:43:45.587Z,27.15
2023-07-03T09:46:31.707Z,26.79
2023-07-03T09:49:24.050Z,27.24
2023-07-03T09:52:10.268Z,27.59
2023-07-03T09:55:01.126Z,27.71
2023-07-03T09:57:47.157Z,27.57
2023-07-03T10:00:33.122Z,27.73
2023-07-03T10:12:03.472Z,26.23
2023-07-03T10:14:54.029Z,26.13
2023-07-03T10:17:43.041Z,26.01
2023-07-03T10:20:33.636Z,26.11
2023-07-03T10:23:24.227Z,25.67
2023-07-03T10:26:13.241Z,25.59
2023-07-03T10:29:09.957Z,25.77
2023-07-03T10:31:59.444Z,25.98
2023-07-03T10:34:55.405Z,25.90
2023-07-03T10:37:46.829Z,25.78
2023-07-03T10:40:38.972Z,26.08
2023-07-03T10:43:26.539Z,25.99
2023-07-03T10:46:19.825Z,26.14
2023-07-03T10:49:08.350Z,25.93
2023-07-03T10:52:02.465Z,25.93
2023-07-03T10:54:56.806Z,26.35
2023-07-03T10:57:50.958Z,26.05
2023-07-03T11:00:43.518Z,26.48
2023-07-03T11:03:35.093Z,26.66
2023-07-03T11:06:26.213Z,26.45
2023-07-03T11:09:15.561Z,27.06
2023-07-03T11:12:07.216Z,26.80
2023-07-03T11:15:08.532Z,26.76
2023-07-03T11:23:50.240Z,27.22
2023-07-03T11:29:29.374Z,26.65
2023-07-03T11:32:17.594Z,27.01
2023-07-03T11:44:19.522Z,26.45
2023-07-03T11:47:07.292Z,26.74
2023-07-03T11:49:59.915Z,26.42
2023-07-03T11:52:49.001Z,27.24
2023-07-03T11:55:37.522Z,27.42
2023-07-03T11:58:26.613Z,28.03
2023-07-03T12:01:31.902Z,28.43
2023-07-03T12:04:51.406Z,28.38
2023-07-03T12:07:51.784Z,28.53
2023-07-03T12:10:47.889Z,28.88
2023-07-03T12:13:52.284Z,28.82
2023-07-03T12:16:45.777Z,28.57
2023-07-03T12:19:32.950Z,28.71
2023-07-03T12:22:21.441Z,28.91
2023-07-03T12:25:10.855Z,29.10
2023-07-03T12:28:09.411Z,29.23
2023-07-03T12:31:10.325Z,29.10
2023-07-03T12:33:58.974Z,29.26
2023-07-03T12:36:50.534Z,29.44
2023-07-03T12:39:36.771Z,29.14
2023-07-03T12:42:26.114Z,29.79
2023-07-03T12:45:15.687Z,29.99
2023-07-03T12:48:03.242Z,29.57
2023-07-03T12:50:50.874Z,29.97
2023-07-03T12:53:38.595Z,30.06
2023-07-03T12:56:24.497Z,29.47
2023-07-03T12:59:13.743Z,29.42
2023-07-03T13:02:00.235Z,29.68
2023-07-03T13:04:46.544Z,29.62
2023-07-03T13:07:32.960Z,29.10
2023-07-03T13:10:20.436Z,29.76
2023-07-03T13:13:09.263Z,29.99
2023-07-03T13:15:56.674Z,29.87
2023-07-03T13:18:59.531Z,29.57
2023-07-03T13:21:51.755Z,29.63
2023-07-03T13:24:44.979Z,29.24
2023-07-03T13:27:31.428Z,29.19
2023-07-03T13:30:21.107Z,29.44
2023-07-03T13:33:10.292Z,29.34
2023-07-03T13:35:56.943Z,29.22
2023-07-03T13:38:42.865Z,28.74
2023-07-03T13:41:28.748Z,29.06
2023-07-03T13:44:16.505Z,29.32
2023-07-03T13:47:02.597Z,28.81
2023-07-03T13:49:49.687Z,28.87
2023-07-03T13:52:38.058Z,28.43
2023-07-03T13:55:24.254Z,28.25
2023-07-03T13:58:10.410Z,27.97
2023-07-03T14:00:56.684Z,28.20
2023-07-03T14:03:45.443Z,27.64
2023-07-03T14:06:34.190Z,27.74
2023-07-03T14:09:21.114Z,27.78
2023-07-03T14:12:07.874Z,27.30
2023-07-03T14:14:54.189Z,27.39
2023-07-03T14:17:40.004Z,27.51
2023-07-03T14:20:26.383Z,27.29
2023-07-03T14:23:13.634Z,27.20
2023-07-03T14:25:59.960Z,27.18
2023-07-03T14:28:47.315Z,27.15
2023-07-03T14:31:33.993Z,26.68
2023-07-03T14:34:20.145Z,26.72
2023-07-03T14:37:06.483Z,26.62
2023-07-03T14:39:53.707Z,26.39
2023-07-03T14:42:39.912Z,26.15
2023-07-03T14:45:26.098Z,26.24
2023-07-03T14:48:12.358Z,25.64
2023-07-03T14:50:59.985Z,25.74
2023-07-03T14:53:46.213Z,25.57
2023-07-03T14:56:33.367Z,25.59
2023-07-03T14:59:19.614Z,25.49
2023-07-03T15:02:06.212Z,25.49
2023-07-03T15:04:52.246Z,25.55
2023-07-03T15:07:38.087Z,25.33
2023-07-03T15:10:24.205Z,25.40
2023-07-03T15:13:11.427Z,25.37
2023-07-03T15:15:57.748Z,25.42
2023-07-03T15:18:43.944Z,25.38
2023-07-03T15:21:29.892Z,25.36
2023-07-03T15:24:18.291Z,25.42
2023-07-03T15:27:06.132Z,25.47
2023-07-03T15:29:54.030Z,25.59
2023-07-03T15:32:40.161Z,25.58
2023-07-03T15:35:26.795Z,25.45
2023-07-03T15:38:12.875Z,25.73
2023-07-03T15:41:00.368Z,25.69
2023-07-03T15:43:48.722Z,25.51
2023-07-03T15:46:36.544Z,25.75
2023-07-03T15:49:22.531Z,25.68
2023-07-03T15:52:09.274Z,25.75
2023-07-03T15:54:55.770Z,25.88
2023-07-03T15:57:41.913Z,25.95
2023-07-03T16:00:28.025Z,26.03
2023-07-03T16:03:15.323Z,26.07
2023-07-03T16:06:03.299Z,26.08
2023-07-03T16:08:51.362Z,26.15
2023-07-03T16:11:38.279Z,26.13
2023-07-03T16:14:24.847Z,26.20
2023-07-03T16:17:11.022Z,26.12
2023-07-03T16:20:09.675Z,26.17
2023-07-03T16:22:57.032Z,26.20
2023-07-03T16:25:50.250Z,26.12
2023-07-03T16:28:37.868Z,26.00
2023-07-03T16:31:25.117Z,25.93
2023-07-03T16:34:11.765Z,25.88
2023-07-03T16:36:59.115Z,25.85
2023-07-03T16:39:45.341Z,25.69
2023-07-03T16:42:31.509Z,25.70
2023-07-03T16:45:17.970Z,25.64
2023-07-03T16:48:04.542Z,25.43
2023-07-03T16:50:54.764Z,25.37
2023-07-03T16:53:43.309Z,25.37
2023-07-03T16:56:29.820Z,25.35
2023-07-03T16:59:16.393Z,25.42
2023-07-03T17:02:02.217Z,25.30
2023-07-03T17:04:48.248Z,25.21
2023-07-03T17:07:34.600Z,25.27
2023-07-03T17:10:21.798Z,25.28
2023-07-03T17:13:08.207Z,25.29
2023-07-03T17:15:54.724Z,25.11
2023-07-03T17:18:41.241Z,25.10
2023-07-03T17:21:27.595Z,25.15
2023-07-03T17:24:13.867Z,25.15
2023-07-03T17:27:01.203Z,25.14
2023-07-03T17:29:47.521Z,25.05
2023-07-03T17:32:34.159Z,25.13
2023-07-03T17:35:20.598Z,25.04
2023-07-03T17:38:07.257Z,25.12
2023-07-03T17:40:53.239Z,24.94
2023-07-03T17:43:40.654Z,24.76
2023-07-03T17:46:27.125Z,24.99
2023-07-03T17:49:13.651Z,24.97
2023-07-03T17:51:59.770Z,25.00
2023-07-03T17:54:45.917Z,25.05
2023-07-03T17:57:32.541Z,24.96
2023-07-03T18:00:20.166Z,24.93
2023-07-03T18:03:06.333Z,24.84
2023-07-03T18:05:55.617Z,24.83
2023-07-03T18:08:41.788Z,24.77
2023-07-03T18:11:28.300Z,24.75
2023-07-03T18:14:14.519Z,24.70
2023-07-03T18:17:02.485Z,24.62
2023-07-03T18:19:48.456Z,24.61
2023-07-03T18:22:34.511Z,24.59
2023-07-03T18:25:20.943Z,24.58
2023-07-03T18:28:07.778Z,24.58
2023-07-03T18:30:58.403Z,24.62
2023-07-03T18:33:47.389Z,24.33
2023-07-03T18:36:33.775Z,24.32
2023-07-03T18:39:20.100Z,24.34
2023-07-03T18:42:06.811Z,24.36
2023-07-03T18:44:53.210Z,24.28
2023-07-03T18:47:40.454Z,24.29
2023-07-03T18:50:28.325Z,24.22
2023-07-03T18:53:14.449Z,24.30
2023-07-03T18:56:00.635Z,24.25
2023-07-03T18:58:47.077Z,24.31
2023-07-03T19:01:35.313Z,24.27
2023-07-03T19:04:22.080Z,24.33
2023-07-03T19:07:09.869Z,24.11
2023-07-03T19:10:08.150Z,24.13
2023-07-03T19:13:03.089Z,24.01
2023-07-03T19:15:49.102Z,23.84
2023-07-03T19:18:35.772Z,23.94
2023-07-03T19:21:21.859Z,23.89
2023-07-03T19:24:09.233Z,23.77
2023-07-03T19:26:55.491Z,23.78
2023-07-03T19:29:41.522Z,23.77
2023-07-03T19:32:28.438Z,23.74
2023-07-03T19:35:14.777Z,23.77
2023-07-03T19:38:00.674Z,23.80
2023-07-03T19:40:47.905Z,23.80
2023-07-03T19:43:33.769Z,23.78
2023-07-03T19:46:19.848Z,23.70
2023-07-03T19:49:06.216Z,23.58
2023-07-03T19:51:52.591Z,23.63
2023-07-03T19:54:38.824Z,23.61
2023-07-03T19:57:26.010Z,23.54
2023-07-03T20:00:12.621Z,23.57
2023-07-03T20:02:58.996Z,23.53
2023-07-03T20:05:46.391Z,23.48
2023-07-03T20:08:33.253Z,23.44
2023-07-03T20:11:20.513Z,23.45
2023-07-03T20:14:07.881Z,23.42
2023-07-03T20:16:53.916Z,23.13
2023-07-03T20:19:40.385Z,23.39
2023-07-03T20:22:26.276Z,23.29
2023-07-03T20:25:12.488Z,23.28
2023-07-03T20:27:58.341Z,23.29
2023-07-03T20:30:48.976Z,23.37
2023-07-03T20:33:35.320Z,23.25
2023-07-03T20:36:21.619Z,23.22
2023-07-03T20:39:08.274Z,23.26
2023-07-03T20:41:54.424Z,22.97
2023-07-03T20:44:42.397Z,23.00
2023-07-03T20:47:31.752Z,23.00
2023-07-03T20:50:18.141Z,23.00
2023-07-03T20:53:11.051Z,23.01
2023-07-03T20:56:08.915Z,23.05
2023-07-03T20:58:56.473Z,22.91
2023-07-03T21:01:43.874Z,23.02
2023-07-03T21:04:31.372Z,22.77
2023-07-03T21:07:17.435Z,22.82
2023-07-03T21:10:03.995Z,22.95
2023-07-03T21:12:50.125Z,22.85
2023-07-03T21:15:36.044Z,22.89
2023-07-03T21:18:21.960Z,22.72
2023-07-03T21:21:14.072Z,22.75
2023-07-03T21:24:00.789Z,22.79
2023-07-03T21:26:46.735Z,22.92
2023-07-03T21:29:33.064Z,23.03
2023-07-03T21:32:18.972Z,22.74
2023-07-03T21:35:05.978Z,22.60
2023-07-03T21:37:53.323Z,22.82
2023-07-03T21:40:39.220Z,22.83
2023-07-03T21:43:25.905Z,22.62
2023-07-03T21:46:14.434Z,22.59
2023-07-03T21:49:00.913Z,22.60
2023-07-03T21:51:47.498Z,22.58
2023-07-03T21:54:34.699Z,22.58
2023-07-03T21:57:20.559Z,22.43
2023-07-03T22:00:14.002Z,22.63
2023-07-03T22:03:03.145Z,22.42
2023-07-03T22:05:49.611Z,22.16
2023-07-03T22:08:35.823Z,22.42
2023-07-03T22:11:23.373Z,22.53
2023-07-03T22:14:10.306Z,22.33
2023-07-03T22:16:57.316Z,22.48
2023-07-03T22:19:44.392Z,22.46
2023-07-03T22:22:30.817Z,22.40
2023-07-03T22:25:17.156Z,22.53
2023-07-03T22:28:04.706Z,22.36
2023-07-03T22:30:50.881Z,22.46
2023-07-03T22:33:37.473Z,22.33
2023-07-03T22:36:23.756Z,22.21
2023-07-03T22:39:10.035Z,22.43
2023-07-03T22:41:56.148Z,22.09
2023-07-03T22:44:43.362Z,22.14
2023-07-03T22:47:30.450Z,22.25
2023-07-03T22:50:16.956Z,22.21
2023-07-03T22:53:03.129Z,22.49
2023-07-03T22:55:49.221Z,22.65
2023-07-03T22:58:35.679Z,22.60
2023-07-03T23:01:23.471Z,22.71
2023-07-03T23:04:09.484Z,22.49
2023-07-03T23:06:55.558Z,22.69
2023-07-03T23:09:43.998Z,22.64
2023-07-03T23:12:30.631Z,22.82
2023-07-03T23:15:16.773Z,22.69
2023-07-03T23:18:04.448Z,22.89
2023-07-03T23:20:55.166Z,22.83
2023-07-03T23:23:41.397Z,22.72
2023-07-03T23:26:27.673Z,22.78
2023-07-03T23:29:13.588Z,22.79
2023-07-03T23:31:59.490Z,22.93
2023-07-03T23:34:48.384Z,22.89
2023-07-03T23:37:34.567Z,22.80
2023-07-03T23:40:20.452Z,22.76
2023-07-03T23:43:06.627Z,22.90
2023-07-03T23:45:53.772Z,23.05
2023-07-03T23:48:41.448Z,22.91
2023-07-03T23:51:30.325Z,22.78
2023-07-03T23:54:16.470Z,23.02
2023-07-03T23:57:02.953Z,22.78
2023-07-03T23:59:49.356Z,23.04
